Tuskahoma, Oklahoma
Current Conditions -  °F | °C
As of 4:53 PM on Saturday 25 Oct 2014 (Local Time) from KMLC Reporting Station
Clear Clear  
Wind Chill: 86°   Ceiling: Unl
Heat Index: 87°   Visibility: 10mi
Dew Point: 63°   Wind: 10mph
Humidity: 46%   Direction: 200°SSW
Pressure: 30.04"   Gusts: NA
Location:  34.62°N, 95.28°W
Report Text: KMLC 252153Z AUTO 20009KT 10SM CLR 30/17 A3004 RMK AO2 SLP163 T03000172
Loading
Personal Weather Stations






























Interactive Weather Map New forecast layout! Learn more

10-Day Weather Forecast

Advertisements
Track Severe Weather on mobile